Flight Track Log - Related Links

Times and Time Zones

All times are in EDT time to prevent confusion due to time zone crossing. See the FFT920 flight status page for this flight to view local times or setup timezone preferences in your user account.

Time Position Orientation Groundspeed Altitude Reporting Facility
EDT Latitude Longitude Course Direction KTS MPH feet Rate Location/Type
Sun 04:40:06 PM 35.9140 -78.7630 28° Northeast 163 188 1,900  Level FlightAware ADS-B
Sun 04:40:27 PM 35.9290 -78.7540 26° Northeast 187 215 2,300 1,350 Climbing FlightAware ADS-B
Sun 04:40:46 PM 35.9460 -78.7430 28° Northeast 223 257 2,800 1,737 Climbing FlightAware ADS-B
Sun 04:41:05 PM 35.9660 -78.7310 26° Northeast 253 291 3,400 2,571 Climbing FlightAware ADS-B
Sun 04:41:35 PM 36.0030 -78.7190 15° North 264 304 4,900 3,283 Climbing FlightAware ADS-B
Sun 04:41:58 PM 36.0280 -78.7100 16° North 265 305 6,300 3,467 Climbing FlightAware ADS-B
Sun 04:42:20 PM 36.0550 -78.7010 15° North 267 307 7,500 3,366 Climbing FlightAware ADS-B
Sun 04:42:39 PM 36.0790 -78.6950 11° North 269 310 8,600 3,073 Climbing FlightAware ADS-B
Sun 04:43:01 PM 36.1060 -78.6860 15° North 276 318 9,600 2,483 Climbing FlightAware ADS-B
Sun 04:43:37 PM 36.1530 -78.6710 14° North 300 345 11,000 1,971 Climbing FlightAware ADS-B
Sun 04:44:11 PM 36.2000 -78.6570 14° North 329 379 11,900 2,057 Climbing FlightAware ADS-B
Sun 04:44:47 PM 36.2540 -78.6400 14° North 341 392 13,400 2,417 Climbing FlightAware ADS-B
Sun 04:45:23 PM 36.3110 -78.6220 14° North 353 406 14,800 2,029 Climbing FlightAware ADS-B
Sun 04:45:55 PM 36.3650 -78.6050 14° North 371 427 15,700 1,971 Climbing FlightAware ADS-B
Sun 04:46:33 PM 36.4270 -78.5860 14° North 377 434 17,100 2,273 Climbing FlightAware ADS-B
Sun 04:47:01 PM 36.4750 -78.5690 16° North 380 437 18,200 971 Climbing FlightAware ADS-B
Sun 04:47:41 PM 36.5330 -78.5490 15° North 380 437 18,200  Level FlightAware ADS-B
Sun 04:48:17 PM 36.5850 -78.5300 16° North 380 437 18,200  Level FlightAware ADS-B
Sun 04:48:54 PM 36.6380 -78.5110 16° North 380 437 18,200  Level FlightAware ADS-B
Sun 04:49:29 PM 36.6880 -78.4930 16° North 380 437 18,200  Level FlightAware ADS-B
Sun 04:50:05 PM 36.7400 -78.4750 16° North 380 437 18,200  Level FlightAware ADS-B
Sun 04:50:42 PM 36.7930 -78.4560 16° North 380 437 18,200 4,410 Level FlightAware ADS-B
Sun 04:52:02 PM 36.9860 -78.2770 37° Northeast 433 498 26,800 5,053 Climbing FlightAware ADS-B
Sun 04:52:36 PM 37.0440 -78.2290 33° Northeast 432 497 27,800 1,676 Climbing FlightAware ADS-B
Sun 04:53:10 PM 37.1000 -78.1840 33° Northeast 431 496 28,700 2,028 Climbing FlightAware ADS-B
Sun 04:53:47 PM 37.1610 -78.1340 33° Northeast 420 483 30,200 1,448 Climbing FlightAware ADS-B
Sun 04:54:37 PM 37.2370 -78.0720 33° Northeast 419 482 30,800 651 Climbing FlightAware ADS-B
Sun 04:55:10 PM 37.2970 -78.0220 34° Northeast 421 484 31,100 171 Climbing FlightAware ADS-B
Sun 04:55:47 PM 37.3540 -77.9750 33° Northeast 420 483 31,000 -86 Descending FlightAware ADS-B
Sun 04:56:20 PM 37.4110 -77.9280 33° Northeast 422 486 31,000  Level FlightAware ADS-B
Sun 04:56:52 PM 37.4610 -77.8850 34° Northeast 424 488 31,000 -88 Level FlightAware ADS-B
Sun 04:57:28 PM 37.5220 -77.8340 34° Northeast 424 488 30,900 -405 Descending FlightAware ADS-B
Sun 04:58:06 PM 37.5810 -77.7810 35° Northeast 424 488 30,500 -649 Descending FlightAware ADS-B
Sun 04:58:42 PM 37.6380 -77.7290 36° Northeast 423 487 30,100 -429 Descending FlightAware ADS-B
Sun 04:59:16 PM 37.6930 -77.6790 36° Northeast 426 490 30,000 -86 Descending FlightAware ADS-B
Sun 04:59:52 PM 37.7500 -77.6270 36° Northeast 426 490 30,000  Level FlightAware ADS-B
Sun 05:00:24 PM 37.8020 -77.5810 35° Northeast 427 491 30,000  Level FlightAware ADS-B
Sun 05:01:02 PM 37.8630 -77.5240 36° Northeast 429 494 30,000  Level FlightAware ADS-B
Sun 05:01:34 PM 37.9160 -77.4760 36° Northeast 430 495 30,000  Level FlightAware ADS-B
Sun 05:02:10 PM 37.9730 -77.4240 36° Northeast 431 496 30,000  Level FlightAware ADS-B
Sun 05:02:48 PM 38.0360 -77.3670 35° Northeast 433 498 30,000  Level FlightAware ADS-B
Sun 05:03:20 PM 38.0880 -77.3190 36° Northeast 434 499 30,000  Level FlightAware ADS-B
Sun 05:03:52 PM 38.1400 -77.2710 36° Northeast 433 498 30,000  Level FlightAware ADS-B
Sun 05:04:29 PM 38.1990 -77.2170 36° Northeast 434 499 30,000  Level FlightAware ADS-B
Sun 05:05:06 PM 38.2590 -77.1610 36° Northeast 435 501 30,000  Level FlightAware ADS-B
Sun 05:05:42 PM 38.3180 -77.1060 36° Northeast 435 501 30,000  Level FlightAware ADS-B
Sun 05:06:18 PM 38.3770 -77.0520 36° Northeast 437 503 30,000  Level FlightAware ADS-B
Sun 05:06:50 PM 38.4290 -77.0030 36° Northeast 436 502 30,000 -441 Level FlightAware ADS-B
Sun 05:07:26 PM 38.4890 -76.9480 36° Northeast 433 498 29,500 -1,750 Descending FlightAware ADS-B
Sun 05:08:02 PM 38.5440 -76.8960 36° Northeast 425 489 27,900 -2,783 Descending FlightAware ADS-B
Sun 05:08:35 PM 38.5950 -76.8490 36° Northeast 426 490 26,300 -2,912 Descending FlightAware ADS-B
Sun 05:09:10 PM 38.6540 -76.7940 36° Northeast 419 482 24,600 -2,156 Descending FlightAware ADS-B
Sun 05:09:39 PM 38.6930 -76.7500 41° Northeast 423 487 24,000 -818 Descending FlightAware ADS-B
Sun 05:09:54 PM 38.7100 -76.7150 58° Northeast 432 497 24,000 -667 Level FlightAware ADS-B
Sun 05:10:06 PM 38.7180 -76.6850 71° East 433 498 23,700 -2,000 Descending FlightAware ADS-B
Sun 05:10:42 PM 38.7360 -76.5990 75° East 426 490 22,400 -2,154 Descending FlightAware ADS-B
Sun 05:11:24 PM 38.7580 -76.4940 75° East 429 494 20,900 -1,946 Descending FlightAware ADS-B
Sun 05:11:56 PM 38.7740 -76.4190 75° East 424 488 20,000 -1,765 Descending FlightAware ADS-B
Sun 05:12:32 PM 38.7920 -76.3320 75° East 420 483 18,900 -1,816 Descending FlightAware ADS-B
Sun 05:13:12 PM 38.8110 -76.2380 75° East 410 472 17,700 -1,737 Descending FlightAware ADS-B
Sun 05:13:48 PM 38.8280 -76.1540 75° East 399 459 16,700 -1,726 Descending FlightAware ADS-B
Sun 05:14:25 PM 38.8460 -76.0680 75° East 397 457 15,600 -1,333 Descending FlightAware ADS-B
Sun 05:15:00 PM 38.8610 -75.9940 75° East 391 450 15,100 -435 Descending FlightAware ADS-B
Sun 05:15:34 PM 38.8760 -75.9180 76° East 393 452 15,100  Level FlightAware ADS-B
Sun 05:16:09 PM 38.8990 -75.8390 69° East 379 436 15,100  Level FlightAware ADS-B
Sun 05:16:34 PM 38.9320 -75.8010 42° Northeast 369 425 15,100  Level FlightAware ADS-B
Sun 05:17:05 PM 38.9750 -75.7590 37° Northeast 368 423 15,100 -273 Level FlightAware ADS-B
Sun 05:17:40 PM 39.0210 -75.7160 36° Northeast 365 420 14,800 -831 Descending FlightAware ADS-B
Sun 05:18:10 PM 39.0660 -75.6800 32° Northeast 346 398 14,200 -1,292 Descending FlightAware ADS-B
Sun 05:18:45 PM 39.1190 -75.6720 North 322 371 13,400 -1,455 Descending FlightAware ADS-B
Sun 05:19:16 PM 39.1640 -75.6670 North 311 358 12,600 -1,164 Descending FlightAware ADS-B
Sun 05:19:52 PM 39.2130 -75.6610 North 295 339 12,100 -405 Descending FlightAware ADS-B
Sun 05:20:30 PM 39.2630 -75.6560 North 290 334 12,100 -113 Level FlightAware ADS-B
Sun 05:20:45 PM 39.2840 -75.6510 10° North 288 331 12,000  Descending FlightAware ADS-B
Sun 05:21:21 PM 39.3260 -75.6170 32° Northeast 294 338 12,100 91 Climbing FlightAware ADS-B
Sun 05:21:51 PM 39.3620 -75.5860 34° Northeast 293 337 12,100  Level FlightAware ADS-B
Sun 05:22:21 PM 39.3980 -75.5610 28° Northeast 282 325 12,100  Level FlightAware ADS-B
Sun 05:22:51 PM 39.4350 -75.5480 15° North 281 323 12,100  Level FlightAware ADS-B
Sun 05:23:31 PM 39.4890 -75.5310 14° North 285 328 12,100  Level FlightAware ADS-B
Sun 05:23:46 PM 39.5060 -75.5190 29° Northeast 292 336 12,100  Level FlightAware ADS-B
Sun 05:24:01 PM 39.5200 -75.4980 49° Northeast 304 350 12,100  Level FlightAware ADS-B
Sun 05:24:31 PM 39.5460 -75.4520 54° Northeast 306 352 12,100 -369 Level FlightAware ADS-B
Sun 05:25:06 PM 39.5750 -75.4010 54° Northeast 304 350 11,700 -811 Descending FlightAware ADS-B
Sun 05:25:45 PM 39.6070 -75.3440 54° Northeast 305 351 11,100 -900 Descending FlightAware ADS-B
Sun 05:26:26 PM 39.6370 -75.2890 55° Northeast 303 349 10,500 -789 Descending FlightAware ADS-B
Sun 05:27:01 PM 39.6690 -75.2320 54° Northeast 300 345 10,100 -545 Descending FlightAware ADS-B
Sun 05:27:21 PM 39.6850 -75.2020 55° Northeast 303 349 10,000 -571 Descending FlightAware ADS-B
Sun 05:27:43 PM 39.6990 -75.1780 53° Northeast 301 346 9,700 -973 Descending FlightAware ADS-B
Sun 05:27:58 PM 39.7140 -75.1510 54° Northeast 300 345 9,400 -1,029 Descending FlightAware ADS-B
Sun 05:28:18 PM 39.7310 -75.1210 54° Northeast 299 344 9,100 -1,029 Descending FlightAware ADS-B
Sun 05:28:33 PM 39.7470 -75.0990 47° Northeast 292 336 8,800 -1,034 Descending FlightAware ADS-B
Sun 05:28:47 PM 39.7640 -75.0890 24° Northeast 283 326 8,600 -1,059 Descending FlightAware ADS-B
Sun 05:29:07 PM 39.7870 -75.0760 23° Northeast 279 321 8,200 -750 Descending FlightAware ADS-B
Sun 05:29:27 PM 39.8100 -75.0640 22° Northeast 278 320 8,100 -279 Descending FlightAware ADS-B
Sun 05:29:50 PM 39.8400 -75.0480 22° Northeast 281 323 8,000 -615 Descending FlightAware ADS-B
Sun 05:30:06 PM 39.8600 -75.0370 23° Northeast 280 322 7,700 -1,200 Descending FlightAware ADS-B
Sun 05:30:30 PM 39.8880 -75.0230 21° North 274 315 7,200 -1,375 Descending FlightAware ADS-B
Sun 05:30:54 PM 39.9160 -75.0080 22° Northeast 261 300 6,600 -2,182 Descending FlightAware ADS-B
Sun 05:31:14 PM 39.9380 -74.9960 23° Northeast 265 305 5,600 -2,341 Descending FlightAware ADS-B
Sun 05:31:35 PM 39.9620 -74.9840 21° North 262 302 5,000 -1,857 Descending FlightAware ADS-B
Sun 05:31:56 PM 39.9850 -74.9730 20° North 260 299 4,300 -1,846 Descending FlightAware ADS-B
Sun 05:32:14 PM 40.0050 -74.9630 21° North 258 297 3,800 -1,231 Descending FlightAware ADS-B
Sun 05:32:35 PM 40.0280 -74.9520 20° North 246 283 3,500 -783 Descending FlightAware ADS-B
Sun 05:33:00 PM 40.0540 -74.9400 19° North 233 268 3,200 -533 Descending FlightAware ADS-B
Sun 05:33:20 PM 40.0730 -74.9300 22° Northeast 220 253 3,100 -375 Descending FlightAware ADS-B
Sun 05:33:48 PM 40.1000 -74.9190 17° North 208 239 2,900 -375 Descending FlightAware ADS-B
Sun 05:34:08 PM 40.1190 -74.9160 North 194 223 2,800 -585 Descending FlightAware ADS-B
Sun 05:34:29 PM 40.1360 -74.9150 North 184 212 2,500 -409 Descending FlightAware ADS-B
Sun 05:34:52 PM 40.1560 -74.9110 North 176 203 2,500  Level FlightAware ADS-B
Sun 05:35:08 PM 40.1680 -74.9070 14° North 178 205 2,500 -450 Level FlightAware ADS-B
Sun 05:35:32 PM 40.1870 -74.9000 16° North 180 207 2,200 -444 Descending FlightAware ADS-B
Sun 05:36:02 PM 40.2090 -74.8920 16° North 179 206 2,100 -545 Descending FlightAware ADS-B
Sun 05:36:38 PM 40.2300 -74.8750 32° Northeast 168 193 1,600 -1,011 Descending FlightAware ADS-B
Sun 05:37:31 PM 40.2500 -74.8500 32° Northeast 125 144 600 -1,132 Descending Philadelphia TRACON

Login

Don't have an account? Register now (free) for customized features, flight alerts, and more!